sensor_id;sensor_type;location;lat;lon;timestamp;temperature;humidity
17202;DHT22;8717;53.588;10.176;2022-08-27T00:01:11;19.30;99.90
17202;DHT22;8717;53.588;10.176;2022-08-27T00:03:42;19.30;99.90
17202;DHT22;8717;53.588;10.176;2022-08-27T00:06:11;19.30;99.90
17202;DHT22;8717;53.588;10.176;2022-08-27T00:08:39;19.30;99.90
17202;DHT22;8717;53.588;10.176;2022-08-27T00:11:05;19.30;99.90
17202;DHT22;8717;53.588;10.176;2022-08-27T00:13:34;19.30;99.90
17202;DHT22;8717;53.588;10.176;2022-08-27T00:16:01;19.30;99.90
17202;DHT22;8717;53.588;10.176;2022-08-27T00:18:28;19.30;99.90
17202;DHT22;8717;53.588;10.176;2022-08-27T00:20:56;19.30;99.90
17202;DHT22;8717;53.588;10.176;2022-08-27T00:23:23;19.30;99.90
17202;DHT22;8717;53.588;10.176;2022-08-27T00:25:49;19.30;99.90
17202;DHT22;8717;53.588;10.176;2022-08-27T00:28:16;19.30;99.90
17202;DHT22;8717;53.588;10.176;2022-08-27T00:30:43;19.30;99.90
17202;DHT22;8717;53.588;10.176;2022-08-27T00:33:12;19.30;99.90
17202;DHT22;8717;53.588;10.176;2022-08-27T00:35:38;19.30;99.90
17202;DHT22;8717;53.588;10.176;2022-08-27T00:38:07;19.30;99.90
17202;DHT22;8717;53.588;10.176;2022-08-27T00:40:34;19.30;99.90
17202;DHT22;8717;53.588;10.176;2022-08-27T00:43:01;19.20;99.90
17202;DHT22;8717;53.588;10.176;2022-08-27T00:45:29;19.20;99.90
17202;DHT22;8717;53.588;10.176;2022-08-27T00:47:58;19.20;99.90
17202;DHT22;8717;53.588;10.176;2022-08-27T00:50:31;19.20;99.90
17202;DHT22;8717;53.588;10.176;2022-08-27T00:53:02;19.20;99.90
17202;DHT22;8717;53.588;10.176;2022-08-27T00:55:34;19.10;99.90
17202;DHT22;8717;53.588;10.176;2022-08-27T00:58:06;19.20;99.90
17202;DHT22;8717;53.588;10.176;2022-08-27T01:00:34;19.10;99.90
17202;DHT22;8717;53.588;10.176;2022-08-27T01:03:01;19.10;99.90
17202;DHT22;8717;53.588;10.176;2022-08-27T01:05:28;19.10;99.90
17202;DHT22;8717;53.588;10.176;2022-08-27T01:08:03;19.10;99.90
17202;DHT22;8717;53.588;10.176;2022-08-27T01:10:33;19.00;99.90
17202;DHT22;8717;53.588;10.176;2022-08-27T01:13:00;19.10;99.90
17202;DHT22;8717;53.588;10.176;2022-08-27T01:15:27;19.00;99.90
17202;DHT22;8717;53.588;10.176;2022-08-27T01:17:54;19.00;99.90
17202;DHT22;8717;53.588;10.176;2022-08-27T01:20:24;19.00;99.90
17202;DHT22;8717;53.588;10.176;2022-08-27T01:22:58;18.90;99.90
17202;DHT22;8717;53.588;10.176;2022-08-27T01:25:29;18.90;99.90
17202;DHT22;8717;53.588;10.176;2022-08-27T01:27:57;18.90;99.90
17202;DHT22;8717;53.588;10.176;2022-08-27T01:30:26;18.90;99.90
17202;DHT22;8717;53.588;10.176;2022-08-27T01:32:53;18.90;99.90
17202;DHT22;8717;53.588;10.176;2022-08-27T01:35:20;18.90;99.90
17202;DHT22;8717;53.588;10.176;2022-08-27T01:37:49;18.80;99.90
17202;DHT22;8717;53.588;10.176;2022-08-27T01:40:16;18.80;99.90
17202;DHT22;8717;53.588;10.176;2022-08-27T01:42:47;18.80;99.90
17202;DHT22;8717;53.588;10.176;2022-08-27T01:45:18;18.80;99.90
17202;DHT22;8717;53.588;10.176;2022-08-27T01:47:45;18.80;99.90
17202;DHT22;8717;53.588;10.176;2022-08-27T01:50:14;18.80;99.90
17202;DHT22;8717;53.588;10.176;2022-08-27T01:52:41;18.80;99.90
17202;DHT22;8717;53.588;10.176;2022-08-27T01:55:10;18.70;99.90
17202;DHT22;8717;53.588;10.176;2022-08-27T01:57:38;18.80;99.90
17202;DHT22;8717;53.588;10.176;2022-08-27T02:00:10;18.80;99.90
17202;DHT22;8717;53.588;10.176;2022-08-27T02:02:37;18.80;99.90
17202;DHT22;8717;53.588;10.176;2022-08-27T02:05:04;18.80;99.90
17202;DHT22;8717;53.588;10.176;2022-08-27T02:07:31;18.80;99.90
17202;DHT22;8717;53.588;10.176;2022-08-27T02:09:58;18.80;99.90
17202;DHT22;8717;53.588;10.176;2022-08-27T02:12:24;18.80;99.90
17202;DHT22;8717;53.588;10.176;2022-08-27T02:14:51;18.80;99.90
17202;DHT22;8717;53.588;10.176;2022-08-27T02:17:19;18.80;99.90
17202;DHT22;8717;53.588;10.176;2022-08-27T02:19:48;18.80;99.90
17202;DHT22;8717;53.588;10.176;2022-08-27T02:22:15;18.80;99.90
17202;DHT22;8717;53.588;10.176;2022-08-27T02:24:41;18.80;99.90
17202;DHT22;8717;53.588;10.176;2022-08-27T02:27:08;18.80;99.90
17202;DHT22;8717;53.588;10.176;2022-08-27T02:29:35;18.80;99.90
17202;DHT22;8717;53.588;10.176;2022-08-27T02:32:02;18.70;99.90
17202;DHT22;8717;53.588;10.176;2022-08-27T02:34:30;18.70;99.90
17202;DHT22;8717;53.588;10.176;2022-08-27T02:36:57;18.80;99.90
17202;DHT22;8717;53.588;10.176;2022-08-27T02:39:23;18.70;99.90
17202;DHT22;8717;53.588;10.176;2022-08-27T02:41:50;18.70;99.90
17202;DHT22;8717;53.588;10.176;2022-08-27T02:44:17;18.70;99.90
17202;DHT22;8717;53.588;10.176;2022-08-27T02:46:43;18.70;99.90
17202;DHT22;8717;53.588;10.176;2022-08-27T02:49:10;18.70;99.90
17202;DHT22;8717;53.588;10.176;2022-08-27T02:51:38;18.60;99.90
17202;DHT22;8717;53.588;10.176;2022-08-27T02:54:05;18.60;99.90
17202;DHT22;8717;53.588;10.176;2022-08-27T02:56:32;18.60;99.90
17202;DHT22;8717;53.588;10.176;2022-08-27T02:58:59;18.60;99.90
17202;DHT22;8717;53.588;10.176;2022-08-27T03:01:26;18.60;99.90
17202;DHT22;8717;53.588;10.176;2022-08-27T03:03:53;18.60;99.90
17202;DHT22;8717;53.588;10.176;2022-08-27T03:06:20;18.60;99.90
17202;DHT22;8717;53.588;10.176;2022-08-27T03:08:48;18.50;99.90
17202;DHT22;8717;53.588;10.176;2022-08-27T03:11:15;18.50;99.90
17202;DHT22;8717;53.588;10.176;2022-08-27T03:13:41;18.50;99.90
17202;DHT22;8717;53.588;10.176;2022-08-27T03:16:09;18.50;99.90
17202;DHT22;8717;53.588;10.176;2022-08-27T03:18:35;18.50;99.90
17202;DHT22;8717;53.588;10.176;2022-08-27T03:21:02;18.50;99.90
17202;DHT22;8717;53.588;10.176;2022-08-27T03:23:31;18.50;99.90
17202;DHT22;8717;53.588;10.176;2022-08-27T03:26:02;18.40;99.90
17202;DHT22;8717;53.588;10.176;2022-08-27T03:28:31;18.40;99.90
17202;DHT22;8717;53.588;10.176;2022-08-27T03:31:00;18.40;99.90
17202;DHT22;8717;53.588;10.176;2022-08-27T03:33:29;18.40;99.90
17202;DHT22;8717;53.588;10.176;2022-08-27T03:35:56;18.40;99.90
17202;DHT22;8717;53.588;10.176;2022-08-27T03:38:23;18.40;99.90
17202;DHT22;8717;53.588;10.176;2022-08-27T03:40:50;18.40;99.90
17202;DHT22;8717;53.588;10.176;2022-08-27T03:43:20;18.40;99.90
17202;DHT22;8717;53.588;10.176;2022-08-27T03:45:47;18.40;99.90
17202;DHT22;8717;53.588;10.176;2022-08-27T03:48:15;18.40;99.90
17202;DHT22;8717;53.588;10.176;2022-08-27T03:50:44;18.30;99.90
17202;DHT22;8717;53.588;10.176;2022-08-27T03:53:13;18.40;99.90
17202;DHT22;8717;53.588;10.176;2022-08-27T03:55:40;18.30;99.90
17202;DHT22;8717;53.588;10.176;2022-08-27T03:58:10;18.30;99.90
17202;DHT22;8717;53.588;10.176;2022-08-27T04:00:39;18.30;99.90
17202;DHT22;8717;53.588;10.176;2022-08-27T04:03:06;18.30;99.90
17202;DHT22;8717;53.588;10.176;2022-08-27T04:05:33;18.40;99.90
17202;DHT22;8717;53.588;10.176;2022-08-27T04:08:01;18.40;99.90
17202;DHT22;8717;53.588;10.176;2022-08-27T04:10:28;18.30;99.90
17202;DHT22;8717;53.588;10.176;2022-08-27T04:12:55;18.30;99.90
17202;DHT22;8717;53.588;10.176;2022-08-27T04:15:22;18.30;99.90
17202;DHT22;8717;53.588;10.176;2022-08-27T04:17:50;18.30;99.90
17202;DHT22;8717;53.588;10.176;2022-08-27T04:20:17;18.30;99.90
17202;DHT22;8717;53.588;10.176;2022-08-27T04:22:43;18.20;99.90
17202;DHT22;8717;53.588;10.176;2022-08-27T04:25:10;18.20;99.90
17202;DHT22;8717;53.588;10.176;2022-08-27T04:27:37;18.20;99.90
17202;DHT22;8717;53.588;10.176;2022-08-27T04:30:04;18.20;99.90
17202;DHT22;8717;53.588;10.176;2022-08-27T04:32:34;18.20;99.90
17202;DHT22;8717;53.588;10.176;2022-08-27T04:35:02;18.20;99.90
17202;DHT22;8717;53.588;10.176;2022-08-27T04:37:30;18.20;99.90
17202;DHT22;8717;53.588;10.176;2022-08-27T04:39:57;18.20;99.90
17202;DHT22;8717;53.588;10.176;2022-08-27T04:42:24;18.20;99.90
17202;DHT22;8717;53.588;10.176;2022-08-27T04:44:51;18.30;99.90
17202;DHT22;8717;53.588;10.176;2022-08-27T04:47:19;18.20;99.90
17202;DHT22;8717;53.588;10.176;2022-08-27T04:49:46;18.20;99.90
17202;DHT22;8717;53.588;10.176;2022-08-27T04:52:14;18.20;99.90
17202;DHT22;8717;53.588;10.176;2022-08-27T04:54:41;18.10;99.90
17202;DHT22;8717;53.588;10.176;2022-08-27T04:57:08;18.20;99.90
17202;DHT22;8717;53.588;10.176;2022-08-27T04:59:35;18.10;99.90
17202;DHT22;8717;53.588;10.176;2022-08-27T05:02:05;18.10;99.90
17202;DHT22;8717;53.588;10.176;2022-08-27T05:04:34;18.10;99.90
17202;DHT22;8717;53.588;10.176;2022-08-27T05:07:02;18.10;99.90
17202;DHT22;8717;53.588;10.176;2022-08-27T05:09:30;18.10;99.90
17202;DHT22;8717;53.588;10.176;2022-08-27T05:11:57;18.00;99.90
17202;DHT22;8717;53.588;10.176;2022-08-27T05:14:24;18.10;99.90
17202;DHT22;8717;53.588;10.176;2022-08-27T05:16:55;18.00;99.90
17202;DHT22;8717;53.588;10.176;2022-08-27T05:19:22;18.10;99.90
17202;DHT22;8717;53.588;10.176;2022-08-27T05:21:50;18.10;99.90
17202;DHT22;8717;53.588;10.176;2022-08-27T05:24:17;18.10;99.90
17202;DHT22;8717;53.588;10.176;2022-08-27T05:26:45;18.10;99.90
17202;DHT22;8717;53.588;10.176;2022-08-27T05:29:12;18.10;99.90
17202;DHT22;8717;53.588;10.176;2022-08-27T05:31:40;18.10;99.90
17202;DHT22;8717;53.588;10.176;2022-08-27T05:34:07;18.10;99.90
17202;DHT22;8717;53.588;10.176;2022-08-27T05:36:34;18.10;99.90
17202;DHT22;8717;53.588;10.176;2022-08-27T05:39:03;18.10;99.90
17202;DHT22;8717;53.588;10.176;2022-08-27T05:41:31;18.10;99.90
17202;DHT22;8717;53.588;10.176;2022-08-27T05:44:02;18.10;99.90
17202;DHT22;8717;53.588;10.176;2022-08-27T05:46:30;18.10;99.90
17202;DHT22;8717;53.588;10.176;2022-08-27T05:48:59;18.10;99.90
17202;DHT22;8717;53.588;10.176;2022-08-27T05:51:28;18.10;99.90
17202;DHT22;8717;53.588;10.176;2022-08-27T05:53:56;18.10;99.90
17202;DHT22;8717;53.588;10.176;2022-08-27T05:56:25;18.00;99.90
17202;DHT22;8717;53.588;10.176;2022-08-27T05:58:55;18.00;99.90
17202;DHT22;8717;53.588;10.176;2022-08-27T06:01:42;18.00;99.90
17202;DHT22;8717;53.588;10.176;2022-08-27T06:04:10;18.00;99.90
17202;DHT22;8717;53.588;10.176;2022-08-27T06:06:39;18.00;99.90
17202;DHT22;8717;53.588;10.176;2022-08-27T06:09:09;18.00;99.90
17202;DHT22;8717;53.588;10.176;2022-08-27T06:11:36;18.00;99.90
17202;DHT22;8717;53.588;10.176;2022-08-27T06:14:04;18.00;99.90
17202;DHT22;8717;53.588;10.176;2022-08-27T06:16:31;18.00;99.90
17202;DHT22;8717;53.588;10.176;2022-08-27T06:18:59;18.00;99.90
17202;DHT22;8717;53.588;10.176;2022-08-27T06:21:25;18.00;99.90
17202;DHT22;8717;53.588;10.176;2022-08-27T06:23:53;18.00;99.90
17202;DHT22;8717;53.588;10.176;2022-08-27T06:26:21;18.00;99.90
17202;DHT22;8717;53.588;10.176;2022-08-27T06:28:48;18.00;99.90
17202;DHT22;8717;53.588;10.176;2022-08-27T06:31:17;18.00;99.90
17202;DHT22;8717;53.588;10.176;2022-08-27T06:33:45;18.00;99.90
17202;DHT22;8717;53.588;10.176;2022-08-27T06:36:15;18.00;99.90
17202;DHT22;8717;53.588;10.176;2022-08-27T06:38:43;18.00;99.90
17202;DHT22;8717;53.588;10.176;2022-08-27T06:41:11;18.00;99.90
17202;DHT22;8717;53.588;10.176;2022-08-27T06:43:40;18.00;99.90
17202;DHT22;8717;53.588;10.176;2022-08-27T06:46:08;18.00;99.90
17202;DHT22;8717;53.588;10.176;2022-08-27T06:48:36;18.00;99.90
17202;DHT22;8717;53.588;10.176;2022-08-27T06:51:06;18.00;99.90
17202;DHT22;8717;53.588;10.176;2022-08-27T06:53:34;18.00;99.90
17202;DHT22;8717;53.588;10.176;2022-08-27T06:56:01;18.00;99.90
17202;DHT22;8717;53.588;10.176;2022-08-27T06:58:29;18.00;99.90
17202;DHT22;8717;53.588;10.176;2022-08-27T07:00:56;18.00;99.90
17202;DHT22;8717;53.588;10.176;2022-08-27T07:03:23;18.10;99.90
17202;DHT22;8717;53.588;10.176;2022-08-27T07:05:49;18.10;99.90
17202;DHT22;8717;53.588;10.176;2022-08-27T07:08:16;18.10;99.90
17202;DHT22;8717;53.588;10.176;2022-08-27T07:10:44;18.10;99.90
17202;DHT22;8717;53.588;10.176;2022-08-27T07:13:11;18.10;99.90
17202;DHT22;8717;53.588;10.176;2022-08-27T07:15:38;18.10;99.90
17202;DHT22;8717;53.588;10.176;2022-08-27T07:18:05;18.20;99.90
17202;DHT22;8717;53.588;10.176;2022-08-27T07:20:32;18.10;99.90
17202;DHT22;8717;53.588;10.176;2022-08-27T07:22:59;18.10;99.90
17202;DHT22;8717;53.588;10.176;2022-08-27T07:25:26;18.10;99.90
17202;DHT22;8717;53.588;10.176;2022-08-27T07:27:54;18.10;99.90
17202;DHT22;8717;53.588;10.176;2022-08-27T07:30:21;18.10;99.90
17202;DHT22;8717;53.588;10.176;2022-08-27T07:32:47;18.10;99.90
17202;DHT22;8717;53.588;10.176;2022-08-27T07:35:14;18.10;99.90
17202;DHT22;8717;53.588;10.176;2022-08-27T07:37:41;18.00;99.90
17202;DHT22;8717;53.588;10.176;2022-08-27T07:40:11;18.00;99.90
17202;DHT22;8717;53.588;10.176;2022-08-27T07:42:38;18.00;99.90
17202;DHT22;8717;53.588;10.176;2022-08-27T07:45:24;17.90;99.90
17202;DHT22;8717;53.588;10.176;2022-08-27T07:47:51;17.90;99.90
17202;DHT22;8717;53.588;10.176;2022-08-27T07:50:18;17.90;99.90
17202;DHT22;8717;53.588;10.176;2022-08-27T07:52:45;17.90;99.90
17202;DHT22;8717;53.588;10.176;2022-08-27T07:55:13;17.80;99.90
17202;DHT22;8717;53.588;10.176;2022-08-27T07:57:39;17.80;99.90
17202;DHT22;8717;53.588;10.176;2022-08-27T08:00:08;17.90;99.90
17202;DHT22;8717;53.588;10.176;2022-08-27T08:02:39;17.90;99.90
17202;DHT22;8717;53.588;10.176;2022-08-27T08:05:09;18.00;99.90
17202;DHT22;8717;53.588;10.176;2022-08-27T08:07:37;18.00;99.90
17202;DHT22;8717;53.588;10.176;2022-08-27T08:10:05;18.00;99.90
17202;DHT22;8717;53.588;10.176;2022-08-27T08:12:33;18.00;99.90
17202;DHT22;8717;53.588;10.176;2022-08-27T08:15:00;18.10;99.90
17202;DHT22;8717;53.588;10.176;2022-08-27T08:17:27;18.10;99.90
17202;DHT22;8717;53.588;10.176;2022-08-27T08:19:56;18.10;99.90
17202;DHT22;8717;53.588;10.176;2022-08-27T08:22:23;18.10;99.90
17202;DHT22;8717;53.588;10.176;2022-08-27T08:24:49;18.10;99.90
17202;DHT22;8717;53.588;10.176;2022-08-27T08:27:16;18.10;99.90
17202;DHT22;8717;53.588;10.176;2022-08-27T08:29:44;18.10;99.90
17202;DHT22;8717;53.588;10.176;2022-08-27T08:32:10;18.10;99.90
17202;DHT22;8717;53.588;10.176;2022-08-27T08:34:37;18.10;99.90
17202;DHT22;8717;53.588;10.176;2022-08-27T08:37:06;18.20;99.90
17202;DHT22;8717;53.588;10.176;2022-08-27T08:39:34;18.20;99.90
17202;DHT22;8717;53.588;10.176;2022-08-27T08:42:03;18.20;99.90
17202;DHT22;8717;53.588;10.176;2022-08-27T08:44:32;18.30;99.90
17202;DHT22;8717;53.588;10.176;2022-08-27T08:47:06;18.30;99.90
17202;DHT22;8717;53.588;10.176;2022-08-27T08:49:43;18.30;99.90
17202;DHT22;8717;53.588;10.176;2022-08-27T08:52:24;18.30;99.90
17202;DHT22;8717;53.588;10.176;2022-08-27T08:54:55;18.30;99.90
17202;DHT22;8717;53.588;10.176;2022-08-27T08:57:29;18.40;99.90
17202;DHT22;8717;53.588;10.176;2022-08-27T09:00:02;18.30;99.90
17202;DHT22;8717;53.588;10.176;2022-08-27T09:02:31;18.30;99.90
17202;DHT22;8717;53.588;10.176;2022-08-27T09:05:01;18.30;99.90
17202;DHT22;8717;53.588;10.176;2022-08-27T09:07:34;18.30;99.90
17202;DHT22;8717;53.588;10.176;2022-08-27T09:10:10;18.30;99.90
17202;DHT22;8717;53.588;10.176;2022-08-27T09:12:39;18.30;99.90
17202;DHT22;8717;53.588;10.176;2022-08-27T09:15:11;18.30;99.90
17202;DHT22;8717;53.588;10.176;2022-08-27T09:17:40;18.30;99.90
17202;DHT22;8717;53.588;10.176;2022-08-27T09:20:07;18.40;99.90
17202;DHT22;8717;53.588;10.176;2022-08-27T09:22:44;18.50;99.90
17202;DHT22;8717;53.588;10.176;2022-08-27T09:25:19;18.60;99.90
17202;DHT22;8717;53.588;10.176;2022-08-27T09:27:50;18.60;99.90
17202;DHT22;8717;53.588;10.176;2022-08-27T09:30:19;18.70;99.90
17202;DHT22;8717;53.588;10.176;2022-08-27T09:32:52;18.80;99.90
17202;DHT22;8717;53.588;10.176;2022-08-27T09:35:22;18.90;99.90
17202;DHT22;8717;53.588;10.176;2022-08-27T09:37:54;19.00;99.90
17202;DHT22;8717;53.588;10.176;2022-08-27T09:40:27;19.00;99.90
17202;DHT22;8717;53.588;10.176;2022-08-27T09:43:04;19.10;99.90
17202;DHT22;8717;53.588;10.176;2022-08-27T09:45:31;19.10;99.90
17202;DHT22;8717;53.588;10.176;2022-08-27T09:48:05;19.10;99.90
17202;DHT22;8717;53.588;10.176;2022-08-27T09:50:37;19.10;99.90
17202;DHT22;8717;53.588;10.176;2022-08-27T09:53:17;19.20;99.90
17202;DHT22;8717;53.588;10.176;2022-08-27T09:55:47;19.20;99.90
17202;DHT22;8717;53.588;10.176;2022-08-27T09:58:19;19.20;99.90
17202;DHT22;8717;53.588;10.176;2022-08-27T10:00:48;19.20;99.90
17202;DHT22;8717;53.588;10.176;2022-08-27T10:03:23;19.20;99.90
17202;DHT22;8717;53.588;10.176;2022-08-27T10:05:50;19.10;99.90
17202;DHT22;8717;53.588;10.176;2022-08-27T10:08:23;19.20;99.90
17202;DHT22;8717;53.588;10.176;2022-08-27T10:10:54;19.10;99.90
17202;DHT22;8717;53.588;10.176;2022-08-27T10:13:26;19.10;99.90
17202;DHT22;8717;53.588;10.176;2022-08-27T10:16:16;19.20;99.90
17202;DHT22;8717;53.588;10.176;2022-08-27T10:18:53;19.20;99.90
17202;DHT22;8717;53.588;10.176;2022-08-27T10:21:28;19.20;99.90
17202;DHT22;8717;53.588;10.176;2022-08-27T10:24:09;19.20;99.90
17202;DHT22;8717;53.588;10.176;2022-08-27T10:26:45;19.30;99.90
17202;DHT22;8717;53.588;10.176;2022-08-27T10:29:22;19.30;99.90
17202;DHT22;8717;53.588;10.176;2022-08-27T10:32:15;19.30;99.90
17202;DHT22;8717;53.588;10.176;2022-08-27T10:34:51;19.30;99.90
17202;DHT22;8717;53.588;10.176;2022-08-27T10:37:25;19.30;99.90
17202;DHT22;8717;53.588;10.176;2022-08-27T10:40:05;19.30;99.90
17202;DHT22;8717;53.588;10.176;2022-08-27T10:42:38;19.30;99.90
17202;DHT22;8717;53.588;10.176;2022-08-27T10:45:13;19.40;99.90
17202;DHT22;8717;53.588;10.176;2022-08-27T10:47:54;19.40;99.90
17202;DHT22;8717;53.588;10.176;2022-08-27T10:50:34;19.40;99.90
17202;DHT22;8717;53.588;10.176;2022-08-27T10:53:05;19.40;99.90
17202;DHT22;8717;53.588;10.176;2022-08-27T10:55:39;19.50;99.90
17202;DHT22;8717;53.588;10.176;2022-08-27T10:58:24;19.50;99.90
17202;DHT22;8717;53.588;10.176;2022-08-27T11:00:58;19.60;99.90
17202;DHT22;8717;53.588;10.176;2022-08-27T11:03:31;19.60;99.90
17202;DHT22;8717;53.588;10.176;2022-08-27T11:06:13;19.60;99.90
17202;DHT22;8717;53.588;10.176;2022-08-27T11:08:44;19.70;99.90
17202;DHT22;8717;53.588;10.176;2022-08-27T11:11:22;19.70;99.90
17202;DHT22;8717;53.588;10.176;2022-08-27T11:13:52;19.80;99.90
17202;DHT22;8717;53.588;10.176;2022-08-27T11:16:25;19.80;99.90
17202;DHT22;8717;53.588;10.176;2022-08-27T11:18:56;19.80;99.90
17202;DHT22;8717;53.588;10.176;2022-08-27T11:21:30;19.90;99.90
17202;DHT22;8717;53.588;10.176;2022-08-27T11:24:04;19.90;99.90
17202;DHT22;8717;53.588;10.176;2022-08-27T11:26:37;19.90;99.90
17202;DHT22;8717;53.588;10.176;2022-08-27T11:29:16;20.00;99.90
17202;DHT22;8717;53.588;10.176;2022-08-27T11:31:49;20.00;99.90
17202;DHT22;8717;53.588;10.176;2022-08-27T11:34:24;20.10;99.90
17202;DHT22;8717;53.588;10.176;2022-08-27T11:37:18;20.20;99.90
17202;DHT22;8717;53.588;10.176;2022-08-27T11:39:59;20.20;99.90
17202;DHT22;8717;53.588;10.176;2022-08-27T11:42:35;20.30;99.90
17202;DHT22;8717;53.588;10.176;2022-08-27T11:45:06;20.30;99.90
17202;DHT22;8717;53.588;10.176;2022-08-27T11:47:38;20.30;99.90
17202;DHT22;8717;53.588;10.176;2022-08-27T11:50:15;20.30;99.90
17202;DHT22;8717;53.588;10.176;2022-08-27T11:52:55;20.30;99.90
17202;DHT22;8717;53.588;10.176;2022-08-27T11:55:26;20.40;99.90
17202;DHT22;8717;53.588;10.176;2022-08-27T11:58:05;20.40;99.90
17202;DHT22;8717;53.588;10.176;2022-08-27T12:00:34;20.40;99.90
17202;DHT22;8717;53.588;10.176;2022-08-27T12:03:04;20.40;99.90
17202;DHT22;8717;53.588;10.176;2022-08-27T12:05:36;20.50;99.90
17202;DHT22;8717;53.588;10.176;2022-08-27T12:08:24;20.50;99.90
17202;DHT22;8717;53.588;10.176;2022-08-27T12:11:08;20.60;99.90
17202;DHT22;8717;53.588;10.176;2022-08-27T12:13:41;20.60;99.90
17202;DHT22;8717;53.588;10.176;2022-08-27T12:16:19;20.70;99.90
17202;DHT22;8717;53.588;10.176;2022-08-27T12:18:57;20.70;99.90
17202;DHT22;8717;53.588;10.176;2022-08-27T12:21:34;20.70;99.90
17202;DHT22;8717;53.588;10.176;2022-08-27T12:24:10;20.80;99.90
17202;DHT22;8717;53.588;10.176;2022-08-27T12:26:40;20.90;99.90
17202;DHT22;8717;53.588;10.176;2022-08-27T12:29:20;21.00;99.90
17202;DHT22;8717;53.588;10.176;2022-08-27T12:31:51;21.20;99.90
17202;DHT22;8717;53.588;10.176;2022-08-27T12:34:22;21.30;99.90
17202;DHT22;8717;53.588;10.176;2022-08-27T12:36:54;21.40;99.90
17202;DHT22;8717;53.588;10.176;2022-08-27T12:39:25;21.50;99.90
17202;DHT22;8717;53.588;10.176;2022-08-27T12:41:52;21.70;99.90
17202;DHT22;8717;53.588;10.176;2022-08-27T12:44:26;21.80;99.90
17202;DHT22;8717;53.588;10.176;2022-08-27T12:46:57;21.90;99.90
17202;DHT22;8717;53.588;10.176;2022-08-27T12:49:31;22.00;99.90
17202;DHT22;8717;53.588;10.176;2022-08-27T12:52:10;22.10;99.90
17202;DHT22;8717;53.588;10.176;2022-08-27T12:54:42;22.20;99.90
17202;DHT22;8717;53.588;10.176;2022-08-27T12:57:18;22.40;99.90
17202;DHT22;8717;53.588;10.176;2022-08-27T12:59:56;22.60;99.90
17202;DHT22;8717;53.588;10.176;2022-08-27T13:02:52;22.70;99.90
17202;DHT22;8717;53.588;10.176;2022-08-27T13:05:22;22.90;99.90
17202;DHT22;8717;53.588;10.176;2022-08-27T13:07:51;23.10;99.90
17202;DHT22;8717;53.588;10.176;2022-08-27T13:10:20;23.30;99.90
17202;DHT22;8717;53.588;10.176;2022-08-27T13:13:01;23.60;99.90
17202;DHT22;8717;53.588;10.176;2022-08-27T13:15:29;23.80;99.30
17202;DHT22;8717;53.588;10.176;2022-08-27T13:17:58;24.10;99.60
17202;DHT22;8717;53.588;10.176;2022-08-27T13:20:26;24.40;99.60
17202;DHT22;8717;53.588;10.176;2022-08-27T13:22:53;24.70;98.70
17202;DHT22;8717;53.588;10.176;2022-08-27T13:25:25;24.90;98.60
17202;DHT22;8717;53.588;10.176;2022-08-27T13:27:56;25.10;97.30
17202;DHT22;8717;53.588;10.176;2022-08-27T13:30:25;25.30;96.40
17202;DHT22;8717;53.588;10.176;2022-08-27T13:32:55;25.40;96.70
17202;DHT22;8717;53.588;10.176;2022-08-27T13:35:23;25.60;96.60
17202;DHT22;8717;53.588;10.176;2022-08-27T13:37:51;25.70;96.40
17202;DHT22;8717;53.588;10.176;2022-08-27T13:40:25;25.80;95.80
17202;DHT22;8717;53.588;10.176;2022-08-27T13:42:55;25.80;94.80
17202;DHT22;8717;53.588;10.176;2022-08-27T13:45:22;25.80;95.20
17202;DHT22;8717;53.588;10.176;2022-08-27T13:47:51;25.70;95.10
17202;DHT22;8717;53.588;10.176;2022-08-27T13:50:22;25.70;95.00
17202;DHT22;8717;53.588;10.176;2022-08-27T13:52:50;25.70;94.60
17202;DHT22;8717;53.588;10.176;2022-08-27T13:55:37;25.60;94.50
17202;DHT22;8717;53.588;10.176;2022-08-27T13:58:12;25.60;94.40
17202;DHT22;8717;53.588;10.176;2022-08-27T14:00:39;25.70;94.40
17202;DHT22;8717;53.588;10.176;2022-08-27T14:03:23;25.70;94.30
17202;DHT22;8717;53.588;10.176;2022-08-27T14:05:51;25.80;93.60
17202;DHT22;8717;53.588;10.176;2022-08-27T14:08:19;25.90;93.70
17202;DHT22;8717;53.588;10.176;2022-08-27T14:10:49;26.10;93.30
17202;DHT22;8717;53.588;10.176;2022-08-27T14:13:24;26.20;93.30
17202;DHT22;8717;53.588;10.176;2022-08-27T14:15:53;26.40;92.90
17202;DHT22;8717;53.588;10.176;2022-08-27T14:18:23;26.60;92.70
17202;DHT22;8717;53.588;10.176;2022-08-27T14:20:52;26.70;92.00
17202;DHT22;8717;53.588;10.176;2022-08-27T14:23:19;27.00;92.00
17202;DHT22;8717;53.588;10.176;2022-08-27T14:25:55;27.10;91.50
17202;DHT22;8717;53.588;10.176;2022-08-27T14:28:22;27.20;90.80
17202;DHT22;8717;53.588;10.176;2022-08-27T14:30:51;27.30;90.60
17202;DHT22;8717;53.588;10.176;2022-08-27T14:33:18;27.30;90.40
17202;DHT22;8717;53.588;10.176;2022-08-27T14:35:46;27.40;90.30
17202;DHT22;8717;53.588;10.176;2022-08-27T14:38:16;27.50;90.10
17202;DHT22;8717;53.588;10.176;2022-08-27T14:40:45;27.50;88.10
17202;DHT22;8717;53.588;10.176;2022-08-27T14:43:12;27.60;88.40
17202;DHT22;8717;53.588;10.176;2022-08-27T14:45:40;27.60;88.30
17202;DHT22;8717;53.588;10.176;2022-08-27T14:48:11;27.70;87.60
17202;DHT22;8717;53.588;10.176;2022-08-27T14:50:40;27.70;86.90
17202;DHT22;8717;53.588;10.176;2022-08-27T14:53:08;27.70;86.80
17202;DHT22;8717;53.588;10.176;2022-08-27T14:55:36;27.70;86.60
17202;DHT22;8717;53.588;10.176;2022-08-27T14:58:05;27.70;85.60
17202;DHT22;8717;53.588;10.176;2022-08-27T15:00:32;27.60;85.90
17202;DHT22;8717;53.588;10.176;2022-08-27T15:02:58;27.50;85.70
17202;DHT22;8717;53.588;10.176;2022-08-27T15:05:25;27.40;85.50
17202;DHT22;8717;53.588;10.176;2022-08-27T15:07:52;27.30;84.40
17202;DHT22;8717;53.588;10.176;2022-08-27T15:10:22;27.10;84.40
17202;DHT22;8717;53.588;10.176;2022-08-27T15:12:51;27.00;84.40
17202;DHT22;8717;53.588;10.176;2022-08-27T15:15:19;27.00;84.30
17202;DHT22;8717;53.588;10.176;2022-08-27T15:17:46;27.00;85.10
17202;DHT22;8717;53.588;10.176;2022-08-27T15:20:14;27.00;85.30
17202;DHT22;8717;53.588;10.176;2022-08-27T15:22:43;27.00;85.70
17202;DHT22;8717;53.588;10.176;2022-08-27T15:25:11;27.00;84.80
17202;DHT22;8717;53.588;10.176;2022-08-27T15:27:39;26.90;84.20
17202;DHT22;8717;53.588;10.176;2022-08-27T15:30:09;26.90;83.80
17202;DHT22;8717;53.588;10.176;2022-08-27T15:32:40;26.90;83.40
17202;DHT22;8717;53.588;10.176;2022-08-27T15:35:10;26.90;84.50
17202;DHT22;8717;53.588;10.176;2022-08-27T15:37:38;26.80;83.80
17202;DHT22;8717;53.588;10.176;2022-08-27T15:40:06;26.70;83.80
17202;DHT22;8717;53.588;10.176;2022-08-27T15:42:33;26.60;83.60
17202;DHT22;8717;53.588;10.176;2022-08-27T15:45:01;26.50;83.70
17202;DHT22;8717;53.588;10.176;2022-08-27T15:47:29;26.40;84.30